createdAt,value
2018-07-25T00:01:18.308Z,100842.86
2018-07-25T00:03:45.437Z,100836.03
2018-07-25T00:06:12.544Z,100839.39
2018-07-25T00:08:39.785Z,100839.73
2018-07-25T00:11:06.955Z,100841.01
2018-07-25T00:13:33.952Z,100836.61
2018-07-25T00:16:00.949Z,100840.52
2018-07-25T00:18:28.475Z,100844.83
2018-07-25T00:20:55.608Z,100844.84
2018-07-25T00:23:22.623Z,100844.08
2018-07-25T00:25:49.721Z,100841.38
2018-07-25T00:28:16.805Z,100849.05
2018-07-25T00:30:43.802Z,100837.91
2018-07-25T00:33:10.796Z,100845.52
2018-07-25T00:35:37.788Z,100842.95
2018-07-25T00:38:04.889Z,100838.22
2018-07-25T00:40:31.897Z,100838.28
2018-07-25T00:42:59.142Z,100842.42
2018-07-25T00:45:26.223Z,100842.44
2018-07-25T00:47:53.242Z,100842.48
2018-07-25T00:50:20.332Z,100840.83
2018-07-25T00:52:47.527Z,100840.30
2018-07-25T00:55:14.623Z,100839.94
2018-07-25T00:57:41.611Z,100838.34
2018-07-25T01:00:08.625Z,100843.77
2018-07-25T01:02:35.703Z,100836.83
2018-07-25T01:05:02.752Z,100844.02
2018-07-25T01:07:31.042Z,100844.83
2018-07-25T01:09:58.069Z,100841.67
2018-07-25T01:12:25.088Z,100841.82
2018-07-25T01:14:52.098Z,100848.91
2018-07-25T01:17:19.348Z,100843.86
2018-07-25T01:19:46.384Z,100847.75
2018-07-25T01:22:13.385Z,100843.86
2018-07-25T01:24:40.492Z,100846.71
2018-07-25T01:27:07.496Z,100846.41
2018-07-25T01:29:34.518Z,100846.47
2018-07-25T01:32:01.516Z,100846.41
2018-07-25T01:34:28.501Z,100845.49
2018-07-25T01:36:55.497Z,100842.40
2018-07-25T01:39:22.493Z,100850.11
2018-07-25T01:41:49.496Z,100842.44
2018-07-25T01:44:16.495Z,100845.44
2018-07-25T01:46:43.487Z,100848.34
2018-07-25T01:49:10.480Z,100847.98
2018-07-25T01:51:37.504Z,100850.00
2018-07-25T01:54:04.584Z,100852.32
2018-07-25T01:56:31.757Z,100852.27
2018-07-25T01:58:58.844Z,100854.59
2018-07-25T02:01:25.871Z,100853.13
2018-07-25T02:03:52.886Z,100854.34
2018-07-25T02:06:22.739Z,100854.29
2018-07-25T02:08:50.211Z,100858.48
2018-07-25T02:11:17.280Z,100858.03
2018-07-25T02:13:44.291Z,100852.30
2018-07-25T02:16:11.329Z,100858.14
2018-07-25T02:18:38.353Z,100861.56
2018-07-25T02:21:05.541Z,100863.31
2018-07-25T02:23:32.652Z,100868.35
2018-07-25T02:25:59.669Z,100863.98
2018-07-25T02:28:26.682Z,100869.88
2018-07-25T02:30:53.692Z,100870.08
2018-07-25T02:33:25.286Z,100867.02
2018-07-25T02:35:52.356Z,100871.16
2018-07-25T02:38:19.357Z,100872.41
2018-07-25T02:40:46.389Z,100869.48
2018-07-25T02:43:13.385Z,100874.59
2018-07-25T02:45:45.953Z,100872.43
2018-07-25T02:48:13.603Z,100872.05
2018-07-25T02:50:40.607Z,100874.97
2018-07-25T02:53:07.656Z,100876.26
2018-07-25T02:55:34.849Z,100870.41
2018-07-25T02:58:01.843Z,100882.62
2018-07-25T03:00:28.857Z,100879.59
2018-07-25T03:02:55.870Z,100882.47
2018-07-25T03:05:22.872Z,100880.58
2018-07-25T03:07:49.901Z,100883.22
2018-07-25T03:10:16.946Z,100884.19
2018-07-25T03:12:43.947Z,100882.54
2018-07-25T03:15:10.977Z,100887.23
2018-07-25T03:17:37.965Z,100878.71
2018-07-25T03:20:05.219Z,100879.15
2018-07-25T03:22:32.301Z,100878.52
2018-07-25T03:24:59.306Z,100880.93
2018-07-25T03:27:26.303Z,100874.73
2018-07-25T03:29:53.297Z,100876.90
2018-07-25T03:32:20.280Z,100880.80
2018-07-25T03:34:47.337Z,100871.50
2018-07-25T03:37:14.342Z,100879.98
2018-07-25T03:39:41.997Z,100876.90
2018-07-25T03:42:09.020Z,100877.95
2018-07-25T03:44:36.016Z,100876.59
2018-07-25T03:47:12.808Z,100884.61
2018-07-25T03:49:39.805Z,100881.20
2018-07-25T03:52:06.855Z,100882.58
2018-07-25T03:54:33.929Z,100883.96
2018-07-25T03:57:00.968Z,100883.18
2018-07-25T03:59:27.999Z,100885.39
2018-07-25T04:01:55.066Z,100880.00
2018-07-25T04:04:22.164Z,100885.20
2018-07-25T04:06:49.869Z,100884.20
2018-07-25T04:09:16.995Z,100883.29
2018-07-25T04:11:44.056Z,100883.29
2018-07-25T04:14:11.118Z,100884.64
2018-07-25T04:16:38.105Z,100891.41
2018-07-25T04:19:05.104Z,100885.09
2018-07-25T04:21:32.112Z,100890.30
2018-07-25T04:23:59.109Z,100889.08
2018-07-25T04:26:26.141Z,100892.56
2018-07-25T04:28:53.209Z,100893.44
2018-07-25T04:31:20.201Z,100896.48
2018-07-25T04:33:47.211Z,100899.09
2018-07-25T04:36:14.224Z,100900.44
2018-07-25T04:38:41.296Z,100907.38
2018-07-25T04:41:08.311Z,100899.37
2018-07-25T04:43:35.683Z,100900.38
2018-07-25T04:46:02.748Z,100914.97
2018-07-25T04:48:29.805Z,100911.17
2018-07-25T04:50:56.912Z,100913.73
2018-07-25T04:55:50.407Z,100913.19
2018-07-25T04:58:17.447Z,100910.77
2018-07-25T05:00:44.511Z,100912.11
2018-07-25T05:03:11.509Z,100916.10
2018-07-25T05:05:38.648Z,100916.59
2018-07-25T05:08:06.240Z,100919.17
2018-07-25T05:10:33.227Z,100916.67
2018-07-25T05:13:00.479Z,100923.92
2018-07-25T05:15:27.456Z,100924.39
2018-07-25T05:17:54.498Z,100923.18
2018-07-25T05:20:22.480Z,100938.09
2018-07-25T05:22:49.487Z,100932.13
2018-07-25T05:25:16.571Z,100933.36
2018-07-25T05:27:43.584Z,100937.74
2018-07-25T05:30:10.600Z,100937.73
2018-07-25T05:32:37.749Z,100937.79
2018-07-25T05:35:04.949Z,100940.97
2018-07-25T05:37:31.956Z,100936.82
2018-07-25T05:39:59.056Z,100940.77
2018-07-25T05:42:26.197Z,100938.23
2018-07-25T05:44:53.241Z,100940.53
2018-07-25T05:47:20.300Z,100936.44
2018-07-25T05:49:47.303Z,100938.81
2018-07-25T05:52:14.318Z,100933.44
2018-07-25T05:54:41.324Z,100935.34
2018-07-25T05:57:08.727Z,100933.27
2018-07-25T05:59:35.797Z,100939.34
2018-07-25T06:02:02.968Z,100940.34
2018-07-25T06:04:30.060Z,100945.55
2018-07-25T06:06:57.137Z,100943.08
2018-07-25T06:09:24.146Z,100943.25
2018-07-25T06:11:51.208Z,100946.80
2018-07-25T06:14:18.329Z,100950.34
2018-07-25T06:16:45.328Z,100954.66
2018-07-25T06:19:12.348Z,100956.02
2018-07-25T06:21:39.396Z,100952.29
2018-07-25T06:24:06.425Z,100954.58
2018-07-25T06:26:33.511Z,100956.75
2018-07-25T06:29:00.536Z,100956.83
2018-07-25T06:31:27.718Z,100959.13
2018-07-25T06:33:54.729Z,100956.20
2018-07-25T06:36:22.026Z,100959.23
2018-07-25T06:38:49.013Z,100968.64
2018-07-25T06:41:16.184Z,100961.92
2018-07-25T06:43:43.595Z,100962.38
2018-07-25T06:46:10.582Z,100961.58
2018-07-25T06:48:37.564Z,100960.33
2018-07-25T06:51:04.866Z,100965.52
2018-07-25T06:53:31.917Z,100967.62
2018-07-25T06:56:01.500Z,100971.88
2018-07-25T06:58:30.296Z,100969.40
2018-07-25T07:00:57.420Z,100964.34
2018-07-25T07:03:24.548Z,100966.59
2018-07-25T07:05:51.696Z,100973.51
2018-07-25T07:08:18.864Z,100971.44
2018-07-25T07:10:45.956Z,100972.75
2018-07-25T07:13:12.992Z,100977.51
2018-07-25T07:15:40.085Z,100978.00
2018-07-25T07:18:07.121Z,100981.08
2018-07-25T07:20:34.487Z,100981.12
2018-07-25T07:23:01.501Z,100979.87
2018-07-25T07:25:28.494Z,100983.36
2018-07-25T07:27:55.479Z,100987.28
2018-07-25T07:30:22.777Z,100983.88
2018-07-25T07:32:49.850Z,100990.73
2018-07-25T07:35:16.928Z,100984.73
2018-07-25T07:37:44.069Z,100992.95
2018-07-25T07:40:11.129Z,100990.80
2018-07-25T07:42:38.597Z,100983.94
2018-07-25T07:45:06.781Z,100986.50
2018-07-25T07:47:33.909Z,100985.67
2018-07-25T07:50:00.995Z,100987.38
2018-07-25T07:52:28.056Z,100989.97
2018-07-25T07:54:55.060Z,100990.83
2018-07-25T07:57:22.168Z,100995.55
2018-07-25T07:59:49.212Z,100996.34
2018-07-25T08:02:16.259Z,100990.36
2018-07-25T08:04:43.244Z,100995.94
2018-07-25T08:07:10.372Z,101000.18
2018-07-25T08:09:37.464Z,101002.28
2018-07-25T08:12:04.484Z,101000.91
2018-07-25T08:14:31.645Z,100996.18
2018-07-25T08:16:58.652Z,101004.38
2018-07-25T08:19:25.648Z,100998.75
2018-07-25T08:21:52.733Z,100997.44
2018-07-25T08:24:19.768Z,101000.80
2018-07-25T08:26:46.772Z,100997.30
2018-07-25T08:29:13.793Z,100998.05
2018-07-25T08:31:40.817Z,101001.41
2018-07-25T08:34:07.847Z,101002.09
2018-07-25T08:36:34.936Z,101005.71
2018-07-25T08:39:02.006Z,101006.50
2018-07-25T08:41:29.025Z,101002.97
2018-07-25T08:43:56.120Z,100971.20
2018-07-25T08:46:23.288Z,101002.83
2018-07-25T08:48:50.276Z,101007.51
2018-07-25T08:51:17.373Z,101012.16
2018-07-25T08:53:44.454Z,101008.00
2018-07-25T08:56:11.489Z,101007.02
2018-07-25T08:58:38.823Z,100991.89
2018-07-25T09:01:05.977Z,101003.44
2018-07-25T09:03:33.059Z,101011.00
2018-07-25T09:06:00.152Z,101007.62
2018-07-25T09:08:27.181Z,101011.34
2018-07-25T09:10:54.322Z,101009.17
2018-07-25T09:13:21.396Z,101007.94
2018-07-25T09:15:48.422Z,101007.47
2018-07-25T09:18:15.479Z,101004.41
2018-07-25T09:20:42.636Z,101010.71
2018-07-25T09:23:09.763Z,101005.88
2018-07-25T09:25:37.233Z,101008.39
2018-07-25T09:28:04.489Z,101011.42
2018-07-25T09:30:32.093Z,101006.28
2018-07-25T09:32:59.141Z,101003.95
2018-07-25T09:35:26.253Z,101009.47
2018-07-25T09:37:53.284Z,101006.47
2018-07-25T09:40:20.361Z,101006.55
2018-07-25T09:42:47.489Z,101011.86
2018-07-25T09:45:14.656Z,101011.83
2018-07-25T09:47:41.785Z,101005.34
2018-07-25T09:50:09.493Z,101000.98
2018-07-25T09:52:37.449Z,101005.95
2018-07-25T09:55:05.202Z,101001.09
2018-07-25T09:57:32.325Z,101001.30
2018-07-25T09:59:59.928Z,100996.13
2018-07-25T10:02:26.961Z,100996.69
2018-07-25T10:04:53.997Z,101002.39
2018-07-25T10:07:21.063Z,101000.07
2018-07-25T10:09:48.071Z,100993.19
2018-07-25T10:12:15.140Z,100994.44
2018-07-25T10:14:42.515Z,100998.84
2018-07-25T10:17:09.627Z,101002.95
2018-07-25T10:19:36.730Z,100998.96
2018-07-25T10:22:03.821Z,100994.83
2018-07-25T10:24:30.862Z,100999.47
2018-07-25T10:26:58.061Z,100995.48
2018-07-25T10:29:25.126Z,100990.44
2018-07-25T10:31:52.164Z,100989.07
2018-07-25T10:34:19.197Z,100986.45
2018-07-25T10:36:46.241Z,100991.53
2018-07-25T10:39:13.262Z,100993.23
2018-07-25T10:41:40.647Z,100986.52
2018-07-25T10:44:07.668Z,100982.63
2018-07-25T10:46:34.832Z,100988.92
2018-07-25T10:49:01.984Z,100983.30
2018-07-25T10:51:29.008Z,100987.44
2018-07-25T10:53:56.276Z,100985.05
2018-07-25T10:56:23.369Z,100981.06
2018-07-25T10:58:50.376Z,100983.80
2018-07-25T11:01:17.383Z,100986.00
2018-07-25T11:03:44.492Z,100987.19
2018-07-25T11:06:11.521Z,100990.58
2018-07-25T11:08:38.536Z,100989.28
2018-07-25T11:11:05.878Z,100991.41
2018-07-25T11:13:32.885Z,100986.58
2018-07-25T11:16:00.101Z,100981.27
2018-07-25T11:18:27.127Z,100984.58
2018-07-25T11:20:54.236Z,100982.23
2018-07-25T11:23:21.294Z,100982.47
2018-07-25T11:25:48.319Z,100983.12
2018-07-25T11:28:15.408Z,100978.72
2018-07-25T11:30:42.427Z,100978.20
2018-07-25T11:33:09.424Z,100979.29
2018-07-25T11:35:36.452Z,100972.53
2018-07-25T11:38:03.526Z,100976.02
2018-07-25T11:40:30.630Z,100978.20
2018-07-25T11:42:57.624Z,100969.40
2018-07-25T11:45:24.725Z,100967.48
2018-07-25T11:47:51.737Z,100966.66
2018-07-25T11:50:18.830Z,100969.34
2018-07-25T11:52:45.865Z,100967.27
2018-07-25T11:55:13.066Z,100968.35
2018-07-25T11:57:40.052Z,100962.17
2018-07-25T12:00:07.517Z,100961.52
2018-07-25T12:02:34.564Z,100958.13
2018-07-25T12:05:01.602Z,100951.35
2018-07-25T12:07:28.767Z,100953.03
2018-07-25T12:09:55.860Z,100950.39
2018-07-25T12:12:23.011Z,100946.22
2018-07-25T12:14:50.068Z,100943.19
2018-07-25T12:17:17.172Z,100941.41
2018-07-25T12:19:44.297Z,100940.06
2018-07-25T12:22:11.412Z,100947.22
2018-07-25T12:24:38.552Z,100944.58
2018-07-25T12:27:05.651Z,100940.95
2018-07-25T12:29:32.680Z,100946.10
2018-07-25T12:31:59.919Z,100941.85
2018-07-25T12:34:26.917Z,100944.07
2018-07-25T12:36:54.018Z,100940.25
2018-07-25T12:39:20.974Z,100941.94
2018-07-25T12:41:47.996Z,100938.49
2018-07-25T12:44:15.414Z,100937.57
2018-07-25T12:46:42.448Z,100933.30
2018-07-25T12:49:09.516Z,100929.64
2018-07-25T12:51:36.598Z,100930.62
2018-07-25T12:54:03.889Z,100933.34
2018-07-25T12:56:30.742Z,100929.27
2018-07-25T12:58:57.783Z,100926.52
2018-07-25T13:01:24.977Z,100917.02
2018-07-25T13:03:52.077Z,100920.20
2018-07-25T13:06:19.189Z,100911.36
2018-07-25T13:08:46.375Z,100915.37
2018-07-25T13:11:13.920Z,100912.65
2018-07-25T13:13:40.996Z,100907.19
2018-07-25T13:16:08.036Z,100901.61
2018-07-25T13:18:35.126Z,100897.14
2018-07-25T13:21:02.531Z,100899.20
2018-07-25T13:23:29.644Z,100900.83
2018-07-25T13:25:57.589Z,100899.77
2018-07-25T13:28:24.955Z,100903.46
2018-07-25T13:30:51.984Z,100891.14
2018-07-25T13:33:19.985Z,100893.66
2018-07-25T13:35:47.121Z,100900.31
2018-07-25T13:38:14.205Z,100901.52
2018-07-25T13:40:41.727Z,100892.13
2018-07-25T13:43:09.040Z,100892.38
2018-07-25T13:45:37.014Z,100892.59
2018-07-25T13:48:04.212Z,100892.98
2018-07-25T13:50:31.253Z,100888.45
2018-07-25T13:52:58.378Z,100885.04
2018-07-25T13:55:25.428Z,100882.62
2018-07-25T13:57:52.704Z,100882.13
2018-07-25T14:00:19.725Z,100884.23
2018-07-25T14:02:46.912Z,100888.39
2018-07-25T14:05:14.079Z,100884.86
2018-07-25T14:07:41.204Z,100883.58
2018-07-25T14:10:08.302Z,100878.24
2018-07-25T14:12:35.488Z,100877.39
2018-07-25T14:15:02.588Z,100867.39
2018-07-25T14:17:29.893Z,100875.77
2018-07-25T14:19:56.934Z,100879.43
2018-07-25T14:22:24.204Z,100895.42
2018-07-25T14:24:51.233Z,100914.30
2018-07-25T14:27:18.732Z,100937.12
2018-07-25T14:29:45.726Z,100961.55
2018-07-25T14:32:12.820Z,100968.50
2018-07-25T14:34:39.898Z,100962.90
2018-07-25T14:37:06.893Z,100959.91
2018-07-25T14:39:34.282Z,100974.81
2018-07-25T14:42:01.440Z,100969.08
2018-07-25T14:44:28.544Z,100973.34
2018-07-25T14:46:55.702Z,100983.02
2018-07-25T14:49:22.894Z,100976.30
2018-07-25T14:51:50.025Z,100991.75
2018-07-25T14:54:17.191Z,101014.31
2018-07-25T14:56:44.267Z,101022.78
2018-07-25T14:59:11.340Z,101011.35
2018-07-25T15:01:38.417Z,101005.21
2018-07-25T15:04:05.748Z,100991.35
2018-07-25T15:06:33.060Z,100989.02
2018-07-25T15:09:00.358Z,100977.80
2018-07-25T15:11:27.378Z,100975.81
2018-07-25T15:13:54.450Z,100980.97
2018-07-25T15:16:21.577Z,100982.52
2018-07-25T15:18:48.692Z,100986.91
2018-07-25T15:21:15.983Z,100987.23
2018-07-25T15:23:54.402Z,100990.80
2018-07-25T15:26:21.509Z,100996.77
2018-07-25T15:28:48.618Z,101000.38
2018-07-25T15:31:15.695Z,101006.49
2018-07-25T15:33:43.097Z,101012.34
2018-07-25T15:36:20.180Z,101010.20
2018-07-25T15:38:47.215Z,101005.22
2018-07-25T15:41:14.274Z,101001.53
2018-07-25T15:43:41.413Z,101002.05
2018-07-25T15:46:08.491Z,101004.19
2018-07-25T15:48:35.955Z,101005.61
2018-07-25T15:51:03.092Z,101006.57
2018-07-25T15:53:30.140Z,101002.38
2018-07-25T15:55:58.660Z,101000.66
2018-07-25T15:58:26.578Z,101012.03
2018-07-25T16:00:53.623Z,101011.69
2018-07-25T16:03:20.988Z,101007.49
2018-07-25T16:05:48.045Z,101008.19
2018-07-25T16:08:15.165Z,101009.11
2018-07-25T16:10:42.738Z,101012.18
2018-07-25T16:13:10.069Z,101008.15
2018-07-25T16:15:37.123Z,101000.92
2018-07-25T16:18:05.964Z,101000.92
2018-07-25T16:20:32.993Z,100998.99
2018-07-25T16:23:00.020Z,100993.45
2018-07-25T16:25:27.298Z,100991.12
2018-07-25T16:27:54.336Z,100992.08
2018-07-25T16:30:21.361Z,100989.17
2018-07-25T16:32:48.401Z,100983.43
2018-07-25T16:35:15.421Z,100978.28
2018-07-25T16:37:42.570Z,100977.23
2018-07-25T16:40:09.621Z,100979.91
2018-07-25T16:42:36.968Z,100981.51
2018-07-25T16:45:04.374Z,100966.25
2018-07-25T16:47:31.639Z,100961.05
2018-07-25T16:49:59.024Z,100959.63
2018-07-25T16:52:26.073Z,100954.24
2018-07-25T16:54:53.314Z,100951.32
2018-07-25T16:57:20.592Z,100951.45
2018-07-25T16:59:47.898Z,100950.61
2018-07-25T17:02:15.232Z,100945.08
2018-07-25T17:04:42.545Z,100939.64
2018-07-25T17:07:10.347Z,100941.47
2018-07-25T17:09:37.628Z,100943.89
2018-07-25T17:12:04.945Z,100944.09
2018-07-25T17:14:32.301Z,100942.94
2018-07-25T17:16:59.280Z,100940.53
2018-07-25T17:19:26.701Z,100944.02
2018-07-25T17:21:53.801Z,100945.34
2018-07-25T17:24:21.552Z,100941.67
2018-07-25T17:26:48.885Z,100949.77
2018-07-25T17:29:16.004Z,100945.03
2018-07-25T17:31:43.356Z,100945.72
2018-07-25T17:34:10.670Z,100949.12
2018-07-25T17:36:37.720Z,100947.34
2018-07-25T17:39:07.644Z,100946.56
2018-07-25T17:41:34.946Z,100947.42
2018-07-25T17:44:02.036Z,100943.74
2018-07-25T17:46:29.152Z,100940.39
2018-07-25T17:48:56.368Z,100940.89
2018-07-25T17:51:23.655Z,100945.87
2018-07-25T17:53:50.937Z,100939.55
2018-07-25T17:56:18.097Z,100941.39
2018-07-25T17:58:45.641Z,100941.82
2018-07-25T18:01:12.794Z,100947.05
2018-07-25T18:03:40.017Z,100948.32
2018-07-25T18:06:07.121Z,100947.95
2018-07-25T18:08:34.273Z,100955.72
2018-07-25T18:11:01.472Z,100961.73
2018-07-25T18:13:34.125Z,100963.52
2018-07-25T18:16:01.157Z,100966.30
2018-07-25T18:18:28.333Z,100964.73
2018-07-25T18:20:55.515Z,100966.59
2018-07-25T18:23:22.649Z,100970.88
2018-07-25T18:25:49.769Z,100970.39
2018-07-25T18:28:17.549Z,100966.59
2018-07-25T18:30:44.665Z,100971.66
2018-07-25T18:33:11.755Z,100972.58
2018-07-25T18:35:38.788Z,100980.31
2018-07-25T18:38:06.028Z,100980.27
2018-07-25T18:40:33.101Z,100980.80
2018-07-25T18:43:00.386Z,100986.41
2018-07-25T18:45:27.501Z,100984.75
2018-07-25T18:47:54.766Z,100978.34
2018-07-25T18:50:21.939Z,100986.99
2018-07-25T18:52:49.436Z,100985.75
2018-07-25T18:55:16.542Z,100991.41
2018-07-25T18:57:43.593Z,100987.47
2018-07-25T19:00:10.914Z,100991.14
2018-07-25T19:02:38.321Z,100995.25
2018-07-25T19:05:05.451Z,100999.22
2018-07-25T19:07:32.552Z,100996.70
2018-07-25T19:10:00.153Z,101003.42
2018-07-25T19:12:27.316Z,101000.31
2018-07-25T19:15:00.184Z,101001.89
2018-07-25T19:17:27.323Z,101005.67
2018-07-25T19:19:54.389Z,101006.11
2018-07-25T19:22:21.494Z,101003.90
2018-07-25T19:24:48.552Z,101009.30
2018-07-25T19:27:15.567Z,101016.50
2018-07-25T19:29:42.680Z,101020.51
2018-07-25T19:32:09.748Z,101017.23
2018-07-25T19:34:36.768Z,101028.45
2018-07-25T19:37:03.953Z,101027.09
2018-07-25T19:39:36.459Z,101025.31
2018-07-25T19:42:04.519Z,101024.03
2018-07-25T19:44:31.981Z,101031.09
2018-07-25T19:46:59.171Z,101035.79
2018-07-25T19:49:26.275Z,101037.34
2018-07-25T19:51:53.278Z,101035.06
2018-07-25T19:54:20.313Z,101030.32
2018-07-25T19:56:50.616Z,101034.64
2018-07-25T19:59:17.701Z,101032.89
2018-07-25T20:01:44.952Z,101024.20
2018-07-25T20:04:12.068Z,101025.38
2018-07-25T20:06:39.072Z,101024.09
2018-07-25T20:09:07.124Z,101026.95
2018-07-25T20:11:34.233Z,101026.94
2018-07-25T20:14:07.391Z,101028.14
2018-07-25T20:16:34.434Z,101024.97
2018-07-25T20:19:01.773Z,101024.23
2018-07-25T20:21:28.867Z,101027.99
2018-07-25T20:23:56.252Z,101025.44
2018-07-25T20:26:23.202Z,101021.62
2018-07-25T20:28:50.250Z,101017.72
2018-07-25T20:31:17.286Z,101022.88
2018-07-25T20:33:44.445Z,101016.86
2018-07-25T20:36:11.442Z,101018.98
2018-07-25T20:38:38.756Z,101015.95
2018-07-25T20:41:05.793Z,101015.91
2018-07-25T20:43:32.798Z,101022.67
2018-07-25T20:46:00.962Z,101018.40
2018-07-25T20:48:28.129Z,101018.75
2018-07-25T20:50:55.134Z,101014.79
2018-07-25T20:53:22.962Z,101012.91
2018-07-25T20:55:50.188Z,101017.67
2018-07-25T20:58:17.177Z,101011.13
2018-07-25T21:00:44.894Z,101017.95
2018-07-25T21:03:11.929Z,101017.63
2018-07-25T21:05:38.962Z,101015.38
2018-07-25T21:08:05.977Z,101016.16
2018-07-25T21:10:33.001Z,101012.25
2018-07-25T21:13:00.032Z,101016.94
2018-07-25T21:15:27.009Z,101015.23
2018-07-25T21:17:54.020Z,101019.50
2018-07-25T21:20:21.443Z,101013.53
2018-07-25T21:22:49.074Z,101019.06
2018-07-25T21:25:16.209Z,101021.91
2018-07-25T21:27:43.226Z,101020.19
2018-07-25T21:30:10.262Z,101032.05
2018-07-25T21:32:37.563Z,101028.09
2018-07-25T21:35:04.687Z,101033.30
2018-07-25T21:37:31.836Z,101034.48
2018-07-25T21:39:58.876Z,101037.37
2018-07-25T21:42:26.201Z,101034.31
2018-07-25T21:44:53.417Z,101034.92
2018-07-25T21:47:20.500Z,101038.20
2018-07-25T21:49:47.908Z,101043.23
2018-07-25T21:52:14.996Z,101047.31
2018-07-25T21:54:42.000Z,101052.34
2018-07-25T21:57:09.629Z,101049.68
2018-07-25T21:59:37.156Z,101055.73
2018-07-25T22:02:04.227Z,101056.06
2018-07-25T22:04:31.464Z,101049.20
2018-07-25T22:06:58.468Z,101051.56
2018-07-25T22:09:25.583Z,101054.28
2018-07-25T22:11:52.656Z,101057.71
2018-07-25T22:14:20.002Z,101056.19
2018-07-25T22:16:47.039Z,101061.80
2018-07-25T22:19:14.124Z,101064.88
2018-07-25T22:21:41.326Z,101066.05
2018-07-25T22:24:08.640Z,101076.06
2018-07-25T22:26:35.776Z,101070.13
2018-07-25T22:29:02.861Z,101074.01
2018-07-25T22:31:30.254Z,101073.06
2018-07-25T22:33:57.340Z,101075.20
2018-07-25T22:36:24.338Z,101068.73
2018-07-25T22:38:51.499Z,101073.53
2018-07-25T22:41:18.565Z,101072.73
2018-07-25T22:43:45.637Z,101069.08
2018-07-25T22:46:12.744Z,101068.13
2018-07-25T22:48:39.956Z,101071.13
2018-07-25T22:51:06.972Z,101072.76
2018-07-25T22:53:34.192Z,101075.88
2018-07-25T22:56:01.251Z,101078.03
2018-07-25T22:58:28.472Z,101075.13
2018-07-25T23:00:55.928Z,101073.92
2018-07-25T23:03:23.421Z,101076.89
2018-07-25T23:05:50.462Z,101074.51
2018-07-25T23:08:17.579Z,101077.06
2018-07-25T23:10:44.575Z,101076.75
2018-07-25T23:13:11.588Z,101076.75
2018-07-25T23:18:12.017Z,101077.17
2018-07-25T23:20:39.021Z,101075.73
2018-07-25T23:23:06.020Z,101079.89
2018-07-25T23:28:07.247Z,101076.27
2018-07-25T23:30:34.329Z,101084.84
2018-07-25T23:33:01.617Z,101084.37
2018-07-25T23:35:28.644Z,101083.19
2018-07-25T23:37:55.631Z,101083.69
2018-07-25T23:40:23.070Z,101085.30
2018-07-25T23:42:50.160Z,101088.11
2018-07-25T23:45:17.483Z,101081.27
2018-07-25T23:47:44.525Z,101084.61
2018-07-25T23:50:11.826Z,101092.23
2018-07-25T23:52:39.323Z,101093.95
2018-07-25T23:55:06.837Z,101090.25
2018-07-25T23:57:33.838Z,101091.11
